Nearby METAR Reports

 

KBGR - Bangor, Maine, USA
Distance from station: E 5mi, 8km
Updated: Fri, 16-Apr-2021 8:53am EDT
Overcast
Overcast
 Wind from ENE
Wind: ENE 14 mph , 22 km/h, Gust: 28 mph , 44 km/h
Temperature: 37°F , 3°C
Wind Chill: 28°F , -2°C
Dew Point: 32°F , 0°C
Humidity: 81%
Barometer: 29.80 inHg , 1009.1 hPa
Clouds: Overcast
Visibility: 10 miles , 16 km
Cloud details: Overcast 1300 ft
2021/04/16 12:53 KBGR 161253Z 06012G24KT 10SM OVC013 03/00 A2980 RMK AO2 SLP091 T00330000
KBHB - Bar Harbor, Maine, USA
Distance from station: SE 37mi, 59km
Updated: Fri, 16-Apr-2021 9:38am EDT
Overcast
Overcast
 Wind from ENE
Wind: ENE 17 mph , 28 km/h, Gust: 26 mph , 43 km/h
Temperature: 37°F , 3°C
Wind Chill: 27°F , -3°C
Dew Point: 32°F , 0°C
Humidity: 81%
Barometer: 29.77 inHg , 1008.1 hPa
Clouds: Overcast
Visibility: 10 miles , 16 km
Cloud details: Overcast 1700 ft
2021/04/16 13:38 KBHB 161338Z AUTO 06015G23KT 10SM OVC017 03/00 A2977 RMK AO2
 
KAUG - Augusta, Maine, USA
Distance from station: SW 55mi, 89km
Updated: Fri, 16-Apr-2021 9:07am EDT
Light rain, Overcast
Light rain, Overcast
 Wind from ENE
Wind: ENE 14 mph , 22 km/h, Gust: 23 mph , 37 km/h
Temperature: 37°F , 3°C
Wind Chill: 28°F , -2°C
Dew Point: 36°F , 2°C
Humidity: 93%
Barometer: 29.71 inHg , 1006.1 hPa
Summary: Light rain
Clouds: Overcast
Visibility: 7 miles , 11 km
Cloud details: Overcast 1500 ft
2021/04/16 13:07 KAUG 161307Z AUTO 06012G20KT 7SM -RA OVC015 03/02 A2971 RMK AO2 P0000 T00280017
KGNR - Greenville, Maine, USA
Distance from station: NW 55mi, 89km
Updated: Fri, 16-Apr-2021 8:56am EDT

 Wind from E
Wind: E 10 mph , 17 km/h
Temperature: 34°F , 1°C
Wind Chill: 26°F , -3°C
Dew Point: 27°F , -3°C
Humidity: 75%
Barometer: 29.76 inHg , 1007.8 hPa
2021/04/16 12:56 KGNR 161256Z AUTO 09009KT 01/M03 A2976 RMK AO1 SLP089 T00061028
 
KMLT - Millinocket, Maine, USA
Distance from station: N 59mi, 95km
Updated: Fri, 16-Apr-2021 8:53am EDT
Overcast
Overcast
 Wind from NE
Wind: NE 13 mph , 20 km/h, Gust: 18 mph , 30 km/h
Temperature: 36°F , 2°C
Wind Chill: 27°F , -3°C
Dew Point: 28°F , -2°C
Humidity: 75%
Barometer: 29.86 inHg , 1011.2 hPa
Clouds: Overcast
Visibility: 10 miles , 16 km
Cloud details: Overcast 1400 ft
2021/04/16 12:53 KMLT 161253Z AUTO 04011G16KT 010V080 10SM OVC014 02/M02 A2986 RMK AO2 SLP121 T00171022
KLEW - Auburn/Lewiston, Maine, USA
Distance from station: SW 86mi, 138km
Updated: Fri, 16-Apr-2021 8:56am EDT
Light rain, Overcast
Light rain, Overcast
 Wind from NNE
Wind: NNE 10 mph , 17 km/h, Gust: 20 mph , 31 km/h
Temperature: 37°F , 3°C
Wind Chill: 30°F , -1°C
Dew Point: 36°F , 2°C
Humidity: 93%
Barometer: 29.69 inHg , 1005.4 hPa
Summary: Light rain
Clouds: Overcast
Visibility: 10 miles , 16 km
Cloud details: Overcast 1400 ft
2021/04/16 12:56 KLEW 161256Z AUTO 03009G17KT 10SM -RA OVC014 03/02 A2969 RMK AO2 SLP061 P0000 T00330017
 
KHUL - Houlton, Maine, USA
Distance from station: NNE 105mi, 169km
Updated: Fri, 16-Apr-2021 9:31am EDT
Overcast
Overcast
 Wind from ENE
Wind: ENE 16 mph , 26 km/h, Gust: 21 mph , 33 km/h
Temperature: 36°F , 2°C
Wind Chill: 26°F , -3°C
Dew Point: 27°F , -3°C
Humidity: 70%
Barometer: 29.89 inHg , 1012.2 hPa
Clouds: Overcast
Visibility: 10 miles , 16 km
Cloud details: Overcast 1500 ft
2021/04/16 13:31 KHUL 161331Z AUTO 07014G18KT 10SM OVC015 02/M03 A2989 RMK AO2 T00171033
KPWM - Portland, Maine, USA
Distance from station: SW 105mi, 170km
Updated: Fri, 16-Apr-2021 9:36am EDT
Rain, Mist, Overcast
Rain, Mist, Overcast
 Wind from ENE
Wind: ENE 20 mph , 31 km/h, Gust: 31 mph , 50 km/h
Temperature: 37°F , 3°C
Wind Chill: 27°F , -3°C
Dew Point: 36°F , 2°C
Humidity: 93%
Barometer: 29.64 inHg , 1003.7 hPa
Summary: Rain, Mist
Clouds: Overcast
Visibility: 2 1/2 miles , 4 km
Cloud details: Overcast 1200 ft
2021/04/16 13:36 KPWM 161336Z 06017G27KT 2 1/2SM RA BR OVC012 03/02 A2964 RMK AO2 PK WND 05027/1316 P0011 T00330022
 
KBML - Berlin, New Hampshire, USA
Distance from station: W 113mi, 181km
Updated: Fri, 16-Apr-2021 9:36am EDT
Light snow, Mist, Overcast
Light snow, Mist, Overcast
 Wind from N
Wind: N 6 mph , 9 km/h
Temperature: 36°F , 2°C
Wind Chill: 31°F , -1°C
Dew Point: 32°F , 0°C
Humidity: 87%
Barometer: 29.69 inHg , 1005.4 hPa
Summary: Light snow, Mist
Clouds: Overcast
Visibility: 1 3/4 miles , 2.8 km
Cloud details: Overcast 1900 ft
2021/04/16 13:36 KBML 161336Z AUTO 35005KT 1 3/4SM -SN BR OVC019 02/00 A2969 RMK AO2 P0001 T00170000
KIZG - Fryeburg, Maine, USA
Distance from station: WSW 116mi, 186km
Updated: Fri, 16-Apr-2021 9:37am EDT
Light snow, Mist, Overcast
Light snow, Mist, Overcast
 Wind from N
Wind: N 9 mph , 15 km/h
Temperature: 34°F , 1°C
Wind Chill: 27°F , -3°C
Dew Point: 30°F , -1°C
Humidity: 87%
Barometer: 29.67 inHg , 1004.7 hPa
Summary: Light snow, Mist
Clouds: Overcast
Visibility: 1 1/4 miles , 2 km
Cloud details: Overcast 500 ft
2021/04/16 13:37 KIZG 161337Z AUTO 01008KT 1 1/4SM -SN BR OVC005 01/M01 A2967 RMK AO2 P0002 T00061006
 
KMWN - Mount Washington, New Hampshire, USA
Distance from station: WSW 123mi, 198km
Updated: Fri, 16-Apr-2021 8:55am EDT
Light snow, Freezing, Fog, Blowing, Snow, Overcast
Light snow, Freezing, Fog, Blowing, Snow, Overcast
 Wind from E
Wind: E 53 mph , 85 km/h, Gust: 66 mph , 106 km/h
Temperature: 16°F , -9°C
Wind Chill: -9°F , -23°C
Dew Point: 16°F , -9°C
Humidity: 100%
Summary: Light snow, Freezing, Fog, Blowing, Snow
Clouds: Overcast
Visibility: 1/16 mile , 0.1 km
Cloud details: Overcast 0 ft
2021/04/16 12:55 KMWN 161255Z 09046G57KT 1/16SM -SN FZFG BLSN VV000 M09/M09 RMK VRY LGT ICG
KCAR - Caribou, Maine, USA
Distance from station: NNE 148mi, 238km
Updated: Fri, 16-Apr-2021 8:54am EDT
Overcast
Overcast
 Wind from ENE
Wind: ENE 8 mph , 13 km/h
Temperature: 37°F , 3°C
Wind Chill: 31°F , -1°C
Dew Point: 27°F , -3°C
Humidity: 65%
Barometer: 29.91 inHg , 1012.9 hPa
Clouds: Overcast
Visibility: 10 miles , 16 km
Cloud details: Overcast 1800 ft
2021/04/16 12:54 KCAR 161254Z AUTO 07007KT 10SM OVC018 03/M03 A2991 RMK AO2 SLP136 T00281033